createdAt,value
2022-10-18T00:03:36.145Z,97920.94
2022-10-18T00:07:38.870Z,97923.66
2022-10-18T00:11:39.085Z,97925.28
2022-10-18T00:15:39.259Z,97923.66
2022-10-18T00:19:39.386Z,97919.94
2022-10-18T00:23:42.169Z,97919.91
2022-10-18T00:27:42.510Z,97924.47
2022-10-18T00:31:42.694Z,97924.22
2022-10-18T00:35:42.756Z,97919.34
2022-10-18T00:39:45.815Z,97928.47
2022-10-18T00:44:01.383Z,97934.47
2022-10-18T00:48:07.126Z,97928.03
2022-10-18T00:52:12.238Z,97921.56
2022-10-18T00:56:16.002Z,97934.47
2022-10-18T01:00:17.247Z,97925.34
2022-10-18T01:04:19.571Z,97924.53
2022-10-18T01:08:38.951Z,97912.94
2022-10-18T01:12:56.098Z,97925.88
2022-10-18T01:17:06.724Z,97920.47
2022-10-18T01:21:27.155Z,97926.94
2022-10-18T01:25:43.484Z,97916.44
2022-10-18T01:30:10.469Z,97909.19
2022-10-18T01:34:17.697Z,97894.59
2022-10-18T01:38:22.207Z,97911.88
2022-10-18T01:42:24.381Z,97921.56
2022-10-18T01:46:27.571Z,97925.88
2022-10-18T01:50:38.145Z,97909.66
2022-10-18T01:54:44.225Z,97915.88
2022-10-18T01:58:56.750Z,97903.78
2022-10-18T02:03:09.645Z,97900.03
2022-10-18T02:07:26.505Z,97902.97
2022-10-18T02:11:27.721Z,97900.50
2022-10-18T02:15:35.743Z,97890.28
2022-10-18T02:19:42.148Z,97883.28
2022-10-18T02:23:48.638Z,97865.50
2022-10-18T02:27:49.315Z,97893.53
2022-10-18T02:31:52.997Z,97901.06
2022-10-18T02:36:02.247Z,97904.25
2022-10-18T02:40:07.470Z,97894.31
2022-10-18T02:44:07.993Z,97906.97
2022-10-18T02:48:09.383Z,97902.09
2022-10-18T02:52:09.539Z,97902.09
2022-10-18T02:56:12.778Z,97886.50
2022-10-18T03:00:15.097Z,97909.66
2022-10-18T03:04:15.265Z,97901.59
2022-10-18T03:08:15.505Z,97878.44
2022-10-18T03:12:18.365Z,97908.31
2022-10-18T03:16:18.647Z,97902.66
2022-10-18T03:20:19.854Z,97899.41
2022-10-18T03:24:20.404Z,97902.63
2022-10-18T03:28:23.750Z,97909.09
2022-10-18T03:32:24.024Z,97908.56
2022-10-18T03:36:24.134Z,97910.19
2022-10-18T03:40:24.286Z,97896.19
2022-10-18T03:44:27.205Z,97909.09
2022-10-18T03:48:27.566Z,97902.63
2022-10-18T03:52:27.850Z,97902.66
2022-10-18T03:56:28.245Z,97905.34
2022-10-18T04:00:31.043Z,97893.50
2022-10-18T04:04:31.204Z,97897.78
2022-10-18T04:08:31.270Z,97890.78
2022-10-18T04:12:31.811Z,97886.47
2022-10-18T04:20:55.150Z,97888.06
2022-10-18T04:24:56.898Z,97875.69
2022-10-18T04:28:57.049Z,97873.56
2022-10-18T04:32:59.786Z,97883.50
2022-10-18T04:37:00.093Z,97873.03
2022-10-18T04:41:00.250Z,97880.03
2022-10-18T04:45:01.613Z,97880.31
2022-10-18T04:49:05.284Z,97869.53
2022-10-18T04:53:05.395Z,97875.16
2022-10-18T04:57:05.864Z,97857.91
2022-10-18T05:01:09.054Z,97867.06
2022-10-18T05:05:14.071Z,97851.44
2022-10-18T05:09:15.702Z,97866.53
2022-10-18T05:13:15.758Z,97867.63
2022-10-18T05:17:15.804Z,97876.78
2022-10-18T05:21:19.391Z,97876.75
2022-10-18T05:25:19.750Z,97871.97
2022-10-18T05:29:19.985Z,97874.16
2022-10-18T05:33:20.211Z,97873.59
2022-10-18T05:37:26.105Z,97876.03
2022-10-18T05:41:28.514Z,97865.00
2022-10-18T05:45:28.829Z,97876.28
2022-10-18T05:49:28.897Z,97866.06
2022-10-18T05:53:36.684Z,97875.19
2022-10-18T05:57:37.776Z,97870.66
2022-10-18T06:01:37.859Z,97854.19
2022-10-18T06:10:00.581Z,97874.69
2022-10-18T06:14:01.805Z,97864.75
2022-10-18T06:18:01.843Z,97871.19
2022-10-18T06:22:02.026Z,97870.59
2022-10-18T06:26:07.938Z,97866.53
2022-10-18T06:30:10.162Z,97888.59
2022-10-18T06:34:10.264Z,97874.66
2022-10-18T06:38:10.321Z,97865.53
2022-10-18T06:42:13.081Z,97882.22
2022-10-18T06:46:13.207Z,97891.94
2022-10-18T06:50:13.879Z,97903.25
2022-10-18T06:54:17.964Z,97892.75
2022-10-18T06:58:21.807Z,97908.38
2022-10-18T07:02:21.871Z,97884.97
2022-10-18T07:06:23.107Z,97907.53
2022-10-18T07:10:23.233Z,97909.69
2022-10-18T07:14:29.026Z,97912.94
2022-10-18T07:18:29.371Z,97899.47
2022-10-18T07:22:30.373Z,97910.47
2022-10-18T07:26:33.528Z,97889.22
2022-10-18T07:30:37.107Z,97908.06
2022-10-18T07:34:37.474Z,97904.28
2022-10-18T07:38:37.887Z,97914.38
2022-10-18T07:42:38.837Z,97905.41
2022-10-18T07:46:41.618Z,97910.53
2022-10-18T07:50:41.654Z,97911.03
2022-10-18T07:54:41.751Z,97914.25
2022-10-18T07:58:41.966Z,97913.56
2022-10-18T08:02:44.755Z,97917.81
2022-10-18T08:06:45.257Z,97897.84
2022-10-18T08:10:45.353Z,97902.41
2022-10-18T08:14:45.455Z,97902.03
2022-10-18T08:18:48.375Z,97892.06
2022-10-18T08:22:48.505Z,97891.22
2022-10-18T08:26:48.612Z,97888.97
2022-10-18T08:30:48.703Z,97882.00
2022-10-18T08:34:51.406Z,97873.47
2022-10-18T08:38:51.946Z,97864.50
2022-10-18T08:43:07.197Z,97864.13
2022-10-18T08:47:14.955Z,97873.25
2022-10-18T08:51:30.854Z,97865.41
2022-10-18T08:55:39.428Z,97871.38
2022-10-18T08:59:44.136Z,97874.06
2022-10-18T09:04:16.477Z,97863.75
2022-10-18T09:09:01.162Z,97875.41
2022-10-18T09:13:29.674Z,97883.97
2022-10-18T09:17:45.120Z,97881.50
2022-10-18T09:21:55.403Z,97873.84
2022-10-18T09:26:06.130Z,97892.63
2022-10-18T09:30:22.445Z,97883.31
2022-10-18T09:34:32.057Z,97891.38
2022-10-18T09:38:36.145Z,97877.34
2022-10-18T09:42:47.663Z,97884.31
2022-10-18T09:46:55.897Z,97883.13
2022-10-18T09:51:01.878Z,97887.63
2022-10-18T09:55:12.284Z,97859.88
2022-10-18T09:59:35.501Z,97863.22
2022-10-18T10:03:36.866Z,97867.09
2022-10-18T10:07:44.449Z,97856.63
2022-10-18T10:11:50.586Z,97861.69
2022-10-18T10:15:57.913Z,97855.41
2022-10-18T10:20:06.329Z,97854.50
2022-10-18T10:24:07.828Z,97860.06
2022-10-18T10:28:15.586Z,97862.84
2022-10-18T10:32:21.602Z,97843.28
2022-10-18T10:36:24.210Z,97841.78
2022-10-18T10:40:28.539Z,97852.06
2022-10-18T10:44:33.660Z,97830.28
2022-10-18T10:48:48.367Z,97835.50
2022-10-18T10:52:51.430Z,97824.53
2022-10-18T10:57:01.610Z,97818.59
2022-10-18T11:01:19.276Z,97818.91
2022-10-18T11:05:29.525Z,97785.88
2022-10-18T11:09:51.569Z,97806.66
2022-10-18T11:14:13.757Z,97816.00
2022-10-18T11:18:26.711Z,97801.66
2022-10-18T11:22:37.356Z,97818.34
2022-10-18T11:26:53.780Z,97805.94
2022-10-18T11:31:14.866Z,97799.09
2022-10-18T11:35:35.817Z,97816.25
2022-10-18T11:39:56.890Z,97816.41
2022-10-18T11:44:03.307Z,97817.06
2022-10-18T11:48:23.190Z,97821.81
2022-10-18T11:52:33.808Z,97804.22
2022-10-18T11:56:48.673Z,97782.13
2022-10-18T12:00:56.641Z,97816.38
2022-10-18T12:05:22.741Z,97810.94
2022-10-18T12:09:31.883Z,97813.84
2022-10-18T12:13:42.106Z,97814.97
2022-10-18T12:17:50.065Z,97814.50
2022-10-18T12:21:51.031Z,97793.75
2022-10-18T12:25:57.932Z,97805.63
2022-10-18T12:30:10.112Z,97815.97
2022-10-18T12:34:29.861Z,97834.75
2022-10-18T12:38:34.859Z,97824.53
2022-10-18T12:42:44.781Z,97832.06
2022-10-18T12:46:55.935Z,97823.50
2022-10-18T12:51:02.827Z,97816.78
2022-10-18T12:55:30.780Z,97827.44
2022-10-18T12:59:54.953Z,97822.91
2022-10-18T13:03:59.722Z,97827.06
2022-10-18T13:08:42.443Z,97826.13
2022-10-18T13:13:24.503Z,97829.41
2022-10-18T13:17:36.469Z,97826.34
2022-10-18T13:21:55.295Z,97829.53
2022-10-18T13:26:07.112Z,97826.47
2022-10-18T13:30:40.298Z,97831.50
2022-10-18T13:34:40.817Z,97824.22
2022-10-18T13:38:50.309Z,97834.63
2022-10-18T13:42:50.430Z,97838.44
2022-10-18T13:47:15.737Z,97840.41
2022-10-18T13:51:38.204Z,97835.53
2022-10-18T13:56:04.133Z,97839.47
2022-10-18T14:00:33.107Z,97810.50
2022-10-18T14:05:23.141Z,97842.88
2022-10-18T14:13:55.127Z,97811.03
2022-10-18T14:18:01.786Z,97839.63
2022-10-18T14:22:15.547Z,97845.00
2022-10-18T14:26:19.910Z,97850.19
2022-10-18T14:30:24.147Z,97829.06
2022-10-18T14:34:24.937Z,97845.19
2022-10-18T14:38:25.011Z,97850.13
2022-10-18T14:42:27.983Z,97847.00
2022-10-18T14:46:31.810Z,97858.25
2022-10-18T14:50:32.111Z,97856.03
2022-10-18T14:54:36.697Z,97855.16
2022-10-18T14:58:40.078Z,97862.34
2022-10-18T15:02:43.330Z,97859.28
2022-10-18T15:06:47.281Z,97848.94
2022-10-18T15:10:47.649Z,97848.31
2022-10-18T15:14:49.444Z,97844.69
2022-10-18T15:19:10.007Z,97844.69
2022-10-18T15:23:26.054Z,97834.88
2022-10-18T15:27:32.757Z,97836.88
2022-10-18T15:31:38.361Z,97832.66
2022-10-18T15:35:42.249Z,97808.13
2022-10-18T15:39:42.351Z,97834.88
2022-10-18T15:43:42.505Z,97833.06
2022-10-18T15:47:42.573Z,97830.53
2022-10-18T15:51:52.475Z,97839.09
2022-10-18T15:55:55.656Z,97843.69
2022-10-18T16:00:00.718Z,97847.25
2022-10-18T16:04:02.323Z,97833.34
2022-10-18T16:08:05.123Z,97854.72
2022-10-18T16:12:05.336Z,97861.84
2022-10-18T16:16:05.583Z,97862.25
2022-10-18T16:20:05.873Z,97863.00
2022-10-18T16:24:09.423Z,97860.50
2022-10-18T16:28:12.343Z,97874.69
2022-10-18T16:32:12.380Z,97873.91
2022-10-18T16:36:17.895Z,97873.41
2022-10-18T16:40:27.648Z,97878.19
2022-10-18T16:44:27.732Z,97888.38
2022-10-18T16:48:28.470Z,97894.88
2022-10-18T16:52:28.750Z,97898.22
2022-10-18T16:56:34.422Z,97891.28
2022-10-18T17:00:34.936Z,97910.78
2022-10-18T17:04:35.017Z,97907.06
2022-10-18T17:08:35.152Z,97925.03
2022-10-18T17:12:37.838Z,97909.28
2022-10-18T17:16:40.190Z,97889.91
2022-10-18T17:20:40.488Z,97924.16
2022-10-18T17:24:40.628Z,97912.50
2022-10-18T17:28:43.539Z,97932.88
2022-10-18T17:32:45.989Z,97929.56
2022-10-18T17:36:46.174Z,97934.06
2022-10-18T17:40:46.962Z,97929.78
2022-10-18T17:44:54.174Z,97946.47
2022-10-18T17:48:57.524Z,97947.06
2022-10-18T17:52:57.823Z,97952.47
2022-10-18T17:56:57.944Z,97948.09
2022-10-18T18:01:00.858Z,97953.25
2022-10-18T18:05:00.982Z,97940.38
2022-10-18T18:09:04.909Z,97931.44
2022-10-18T18:13:05.703Z,97940.03
2022-10-18T18:17:09.021Z,97958.91
2022-10-18T18:21:09.666Z,97922.78
2022-10-18T18:25:12.435Z,97946.72
2022-10-18T18:29:15.991Z,97943.84
2022-10-18T18:33:21.590Z,97931.16
2022-10-18T18:37:21.972Z,97948.00
2022-10-18T18:41:24.481Z,97938.19
2022-10-18T18:45:24.742Z,97941.63
2022-10-18T18:49:29.625Z,97943.16
2022-10-18T18:53:31.267Z,97927.66
2022-10-18T18:57:32.709Z,97950.22
2022-10-18T19:01:36.559Z,97948.19
2022-10-18T19:05:40.894Z,97964.31
2022-10-18T19:09:42.480Z,97951.13
2022-10-18T19:13:42.561Z,97970.50
2022-10-18T19:17:42.748Z,97967.47
2022-10-18T19:21:49.182Z,97942.31
2022-10-18T19:25:50.654Z,97952.63
2022-10-18T19:29:51.110Z,97960.81
2022-10-18T19:33:59.283Z,97952.72
2022-10-18T19:38:02.754Z,97958.91
2022-10-18T19:42:05.846Z,97958.22
2022-10-18T19:46:08.032Z,97962.81
2022-10-18T19:50:11.247Z,97965.09
2022-10-18T19:54:18.082Z,97976.00
2022-10-18T19:58:18.336Z,97974.94
2022-10-18T20:02:18.496Z,97971.38
2022-10-18T20:06:19.160Z,97967.34
2022-10-18T20:10:22.823Z,97965.09
2022-10-18T20:14:23.074Z,97929.47
2022-10-18T20:18:24.101Z,97962.03
2022-10-18T20:22:24.206Z,97951.50
2022-10-18T20:26:28.183Z,97963.50
2022-10-18T20:30:28.341Z,97963.72
2022-10-18T20:34:29.004Z,97973.25
2022-10-18T20:38:29.764Z,97967.13
2022-10-18T20:42:32.748Z,97953.75
2022-10-18T20:46:38.162Z,97956.44
2022-10-18T20:50:43.436Z,97960.84
2022-10-18T20:54:43.639Z,97950.84
2022-10-18T20:58:48.149Z,97959.59
2022-10-18T21:02:48.187Z,97968.53
2022-10-18T21:06:48.267Z,97972.59
2022-10-18T21:10:49.980Z,97960.00
2022-10-18T21:14:53.391Z,97964.06
2022-10-18T21:18:54.133Z,97956.03
2022-10-18T21:22:54.426Z,97964.66
2022-10-18T21:26:54.644Z,97952.56
2022-10-18T21:30:57.903Z,97939.88
2022-10-18T21:34:58.194Z,97935.56
2022-10-18T21:38:58.257Z,97926.97
2022-10-18T21:42:58.469Z,97925.34
2022-10-18T21:47:01.212Z,97939.88
2022-10-18T21:51:06.256Z,97947.94
2022-10-18T21:55:07.389Z,97946.34
2022-10-18T21:59:08.137Z,97944.16
2022-10-18T22:03:16.398Z,97941.22
2022-10-18T22:07:16.425Z,97938.28
2022-10-18T22:11:18.762Z,97916.19
2022-10-18T22:15:19.132Z,97941.50
2022-10-18T22:19:22.014Z,97943.13
2022-10-18T22:23:22.095Z,97946.09
2022-10-18T22:27:22.338Z,97942.84
2022-10-18T22:31:25.733Z,97940.94
2022-10-18T22:35:28.404Z,97961.97
2022-10-18T22:39:28.433Z,97958.13
2022-10-18T22:43:28.527Z,97952.75
2022-10-18T22:47:28.609Z,97956.78
2022-10-18T22:51:31.342Z,97958.69
2022-10-18T22:55:31.421Z,97957.06
2022-10-18T22:59:31.488Z,97956.56
2022-10-18T23:03:31.987Z,97957.63
2022-10-18T23:07:34.689Z,97952.78
2022-10-18T23:11:35.533Z,97956.56
2022-10-18T23:15:35.926Z,97942.00
2022-10-18T23:19:36.056Z,97956.56
2022-10-18T23:23:43.506Z,97961.41
2022-10-18T23:32:03.845Z,97966.28
2022-10-18T23:36:03.940Z,97966.78
2022-10-18T23:40:07.558Z,97968.16
2022-10-18T23:44:09.111Z,97961.66
2022-10-18T23:48:10.909Z,97971.00
2022-10-18T23:52:11.558Z,97975.78
2022-10-18T23:56:17.305Z,97962.31
